Time;durP1;ratioP1;P1;durP2;ratioP2;P2;SDS_P1;SDS_P2;PMS_P1;PMS_P2;Temp;Humidity;BMP_temperature;BMP_pressure;BME280_temperature;BME280_humidity;BME280_pressure;Samples;Min_cycle;Max_cycle;Signal;HPM_P1;HPM_P2
2023/09/02 00:01:22;;;;;;;0.00;0.00;;;;;;;18.12;60.17;100012.06;5349018;26;20087;-92
2023/09/02 00:03:47;;;;;;;0.10;0.10;;;;;;;18.16;60.18;100013.56;5331198;26;20064;-91
2023/09/02 00:06:12;;;;;;;0.15;0.15;;;;;;;18.03;60.17;100018.72;5330857;26;20115;-91
2023/09/02 00:08:38;;;;;;;0.00;0.00;;;;;;;18.01;60.17;100010.91;5330424;26;21558;-92
2023/09/02 00:11:03;;;;;;;0.52;0.20;;;;;;;18.01;60.17;100015.31;5348927;26;20100;-92
2023/09/02 00:13:29;;;;;;;0.70;0.52;;;;;;;17.99;60.16;100018.06;5330798;26;20087;-92
2023/09/02 00:15:54;;;;;;;0.20;0.20;;;;;;;17.91;60.16;100009.72;5331027;26;20069;-91
2023/09/02 00:18:20;;;;;;;0.30;0.30;;;;;;;17.75;60.15;100020.31;5331250;26;20104;-91
2023/09/02 00:20:45;;;;;;;0.00;0.00;;;;;;;17.86;60.16;100019.69;5330742;26;20401;-92
2023/09/02 00:23:12;;;;;;;0.25;0.10;;;;;;;17.86;60.16;100005.66;5348824;26;22878;-92
2023/09/02 00:25:37;;;;;;;0.28;0.25;;;;;;;17.73;60.15;100016.03;5331697;26;20422;-92
2023/09/02 00:28:03;;;;;;;0.22;0.20;;;;;;;17.68;60.15;100018.09;5330328;26;20103;-92
2023/09/02 00:30:28;;;;;;;0.00;0.00;;;;;;;17.68;60.15;100012.84;5330822;26;20056;-91
2023/09/02 00:32:54;;;;;;;0.05;0.05;;;;;;;17.70;60.15;100010.97;5330758;26;20109;-91
2023/09/02 00:35:19;;;;;;;0.30;0.30;;;;;;;17.71;60.15;100013.50;5349311;26;20120;-91
2023/09/02 00:37:44;;;;;;;0.47;0.37;;;;;;;17.76;60.15;100008.00;5330987;26;20073;-91
2023/09/02 00:40:12;;;;;;;0.00;0.00;;;;;;;17.78;60.16;100006.13;5330402;26;20060;-91
2023/09/02 00:42:37;;;;;;;1.58;0.08;;;;;;;17.52;60.14;100007.56;5330871;26;20467;-91
2023/09/02 00:45:03;;;;;;;0.00;0.00;;;;;;;17.64;60.15;100003.37;5330747;26;20099;-91
2023/09/02 00:47:29;;;;;;;2.28;0.45;;;;;;;17.67;60.14;99998.81;5330858;26;20096;-94
2023/09/02 00:49:54;;;;;;;1.00;0.37;;;;;;;17.65;60.14;100000.66;5330823;26;20081;-92
2023/09/02 00:52:20;;;;;;;0.00;0.00;;;;;;;17.73;60.15;100005.50;5349322;26;20056;-93
2023/09/02 00:54:45;;;;;;;0.10;0.10;;;;;;;17.68;60.15;100002.31;5330650;26;20125;-92
2023/09/02 00:57:11;;;;;;;0.20;0.10;;;;;;;17.74;60.15;100007.22;5330654;26;20072;-92
2023/09/02 00:59:36;;;;;;;0.00;0.00;;;;;;;17.61;60.14;100004.41;5330541;26;20059;-93
2023/09/02 01:02:03;;;;;;;0.00;0.00;;;;;;;17.59;60.14;100013.34;5332008;26;20098;-94
2023/09/02 01:04:28;;;;;;;0.00;0.00;;;;;;;17.71;60.15;100015.28;5330895;26;20068;-93
2023/09/02 01:06:55;;;;;;;0.00;0.00;;;;;;;17.59;60.14;100015.97;5330912;26;20454;-93
2023/09/02 01:09:20;;;;;;;0.03;0.03;;;;;;;17.70;60.15;100016.22;5330871;26;20095;-93
2023/09/02 01:11:46;;;;;;;0.43;0.32;;;;;;;17.55;60.15;100014.44;5330442;26;20079;-95
2023/09/02 01:14:11;;;;;;;0.25;0.25;;;;;;;17.51;60.14;100011.16;5330854;26;20144;-94
2023/09/02 01:16:38;;;;;;;0.00;0.00;;;;;;;17.47;60.14;100020.97;5349363;26;20077;-94
2023/09/02 01:19:04;;;;;;;0.03;0.03;;;;;;;17.50;60.13;100023.44;5330516;26;20820;-94
2023/09/02 01:21:48;;;;;;;0.10;0.10;;;;;;;17.44;60.13;100021.16;5330605;26;20056;-94
2023/09/02 01:24:28;;;;;;;0.00;0.00;;;;;;;17.50;60.14;100019.94;5349211;26;20096;-94
2023/09/02 01:27:03;;;;;;;4.90;0.80;;;;;;;17.52;60.14;100017.25;5348901;26;20133;-93
2023/09/02 01:29:28;;;;;;;0.00;0.00;;;;;;;17.44;60.13;100017.66;5349266;26;20059;-94
2023/09/02 01:31:54;;;;;;;0.32;0.28;;;;;;;17.44;60.13;100007.97;5330555;26;20078;-93
2023/09/02 01:34:21;;;;;;;0.00;0.00;;;;;;;17.39;60.14;100006.56;5330700;26;20084;-92
2023/09/02 01:36:47;;;;;;;0.15;0.15;;;;;;;17.42;60.13;100006.37;5349615;26;20064;-91
2023/09/02 01:39:12;;;;;;;0.00;0.00;;;;;;;17.30;60.12;100010.56;5349769;26;20074;-93
2023/09/02 01:41:38;;;;;;;0.13;0.13;;;;;;;17.34;60.13;100008.59;5330133;26;20074;-93
2023/09/02 01:44:03;;;;;;;0.00;0.00;;;;;;;17.36;60.13;100006.72;5330421;26;20065;-92
2023/09/02 01:46:29;;;;;;;0.35;0.35;;;;;;;17.30;60.12;100012.34;5330547;26;20063;-93
2023/09/02 01:48:54;;;;;;;0.08;0.08;;;;;;;17.36;60.13;100010.22;5330443;26;20119;-94
2023/09/02 01:51:19;;;;;;;0.05;0.05;;;;;;;17.42;60.13;100014.28;5329957;26;20142;-93
2023/09/02 01:53:45;;;;;;;0.00;0.00;;;;;;;17.55;60.15;100012.66;5330543;26;20117;-94
2023/09/02 01:56:10;;;;;;;2.67;0.43;;;;;;;17.33;60.13;100012.16;5332051;26;20111;-94
2023/09/02 01:58:36;;;;;;;0.50;0.45;;;;;;;17.42;60.13;100009.84;5329998;26;20094;-94
2023/09/02 02:01:01;;;;;;;0.10;0.10;;;;;;;17.33;60.13;100020.06;5330467;26;20305;-94
2023/09/02 02:03:34;;;;;;;0.00;0.00;;;;;;;17.31;60.12;100009.63;5349170;26;20074;-94
2023/09/02 02:06:00;;;;;;;0.22;0.10;;;;;;;17.28;60.13;100011.59;5330560;26;20063;-92
2023/09/02 02:08:47;;;;;;;2.83;0.70;;;;;;;17.22;60.12;100015.38;5330047;26;20095;-93
2023/09/02 02:11:13;;;;;;;0.10;0.10;;;;;;;17.21;60.12;100012.84;5330815;26;20056;-91
2023/09/02 02:13:38;;;;;;;0.00;0.00;;;;;;;17.16;60.12;100018.34;5331769;26;20067;-93
2023/09/02 02:16:04;;;;;;;0.00;0.00;;;;;;;17.15;60.12;100012.25;5330883;26;20075;-93
2023/09/02 02:18:30;;;;;;;0.00;0.00;;;;;;;17.11;60.12;100017.75;5349556;26;20059;-92
2023/09/02 02:20:59;;;;;;;0.00;0.00;;;;;;;17.28;60.13;100020.31;5331255;26;20078;-91
2023/09/02 02:23:24;;;;;;;0.10;0.10;;;;;;;17.09;60.12;100015.22;5331363;26;20129;-91
2023/09/02 02:25:50;;;;;;;0.00;0.00;;;;;;;17.30;60.12;100018.44;5331264;26;20402;-94
2023/09/02 02:28:15;;;;;;;0.10;0.10;;;;;;;17.24;60.12;100021.41;5331076;26;20349;-93
2023/09/02 02:30:41;;;;;;;0.62;0.50;;;;;;;17.15;60.12;100012.25;5331142;26;20102;-92
2023/09/02 02:33:06;;;;;;;0.40;0.35;;;;;;;17.37;60.13;100016.31;5331264;26;20064;-92
2023/09/02 02:35:32;;;;;;;0.00;0.00;;;;;;;17.07;60.11;100017.09;5331220;26;20531;-92
2023/09/02 02:37:59;;;;;;;6.55;1.17;;;;;;;17.01;60.11;100016.53;5331788;26;20059;-92
2023/09/02 02:40:25;;;;;;;0.20;0.20;;;;;;;16.96;60.11;100018.56;5331478;26;20098;-92
2023/09/02 02:42:50;;;;;;;0.00;0.00;;;;;;;17.06;60.11;100025.06;5350016;26;20060;-95
2023/09/02 02:45:16;;;;;;;0.05;0.05;;;;;;;17.03;60.11;100014.69;5331242;26;20067;-96
2023/09/02 02:47:41;;;;;;;0.15;0.05;;;;;;;17.04;60.11;100017.25;5333485;26;20059;-94
2023/09/02 02:50:07;;;;;;;0.40;0.40;;;;;;;16.93;60.11;100018.75;5331762;26;20040;-95
2023/09/02 02:52:33;;;;;;;0.20;0.20;;;;;;;16.88;60.10;100017.22;5349836;26;20748;-96
2023/09/02 02:54:58;;;;;;;0.00;0.00;;;;;;;16.83;60.10;100016.63;5350702;26;20064;-95
2023/09/02 02:57:24;;;;;;;0.17;0.17;;;;;;;16.98;60.11;100021.97;5331475;26;20310;-96
2023/09/02 02:59:52;;;;;;;0.57;0.50;;;;;;;17.13;60.12;100018.53;5331594;26;20076;-95
2023/09/02 03:02:17;;;;;;;0.00;0.00;;;;;;;16.84;60.10;100015.69;5330910;26;20421;-94
2023/09/02 03:04:48;;;;;;;0.00;0.00;;;;;;;17.07;60.11;100013.59;5351224;26;20367;-95
2023/09/02 03:07:16;;;;;;;0.00;0.00;;;;;;;17.01;60.11;100017.38;5333619;26;20069;-94
2023/09/02 03:09:41;;;;;;;0.88;0.70;;;;;;;16.84;60.10;100020.09;5331179;26;20424;-94
2023/09/02 03:12:13;;;;;;;0.65;0.65;;;;;;;16.72;60.10;100011.06;5332197;26;20064;-95
2023/09/02 03:17:11;;;;;;;0.00;0.00;;;;;;;16.76;60.09;100023.13;5392924;26;20127;-96
2023/09/02 03:19:36;;;;;;;0.45;0.45;;;;;;;16.79;60.10;100022.94;5335079;26;20149;-96
2023/09/02 03:22:02;;;;;;;0.00;0.00;;;;;;;16.87;60.10;100012.03;5334765;26;20056;-96
2023/09/02 03:24:27;;;;;;;0.20;0.20;;;;;;;16.88;60.10;100025.09;5334837;26;20055;-96
2023/09/02 03:26:53;;;;;;;0.20;0.20;;;;;;;16.98;60.10;100029.84;5334825;26;24200;-95
2023/09/02 03:29:18;;;;;;;0.03;0.03;;;;;;;17.04;60.11;100025.16;5334791;26;20047;-95
2023/09/02 03:31:43;;;;;;;0.17;0.17;;;;;;;17.09;60.12;100022.25;5334815;26;20081;-94
2023/09/02 03:34:09;;;;;;;0.00;0.00;;;;;;;17.07;60.11;100024.13;5334847;26;20063;-95
2023/09/02 03:36:35;;;;;;;0.13;0.13;;;;;;;17.31;60.12;100022.78;5334782;26;20091;-95
2023/09/02 03:39:00;;;;;;;0.00;0.00;;;;;;;17.10;60.12;100018.69;5334940;26;20071;-95
2023/09/02 03:41:26;;;;;;;0.05;0.05;;;;;;;17.03;60.11;100015.53;5334698;26;20456;-94
2023/09/02 03:43:51;;;;;;;0.00;0.00;;;;;;;16.95;60.11;100015.09;5334885;26;20408;-96
2023/09/02 03:46:17;;;;;;;0.00;0.00;;;;;;;16.94;60.11;100018.66;5334618;26;20068;-96
2023/09/02 03:48:42;;;;;;;0.00;0.00;;;;;;;17.06;60.11;100022.44;5353271;26;20436;-94
2023/09/02 03:51:12;;;;;;;0.10;0.10;;;;;;;17.09;60.12;100019.63;5334165;26;20063;-95
2023/09/02 03:53:41;;;;;;;0.43;0.43;;;;;;;17.11;60.12;100020.37;5335804;26;20067;-95
2023/09/02 03:56:07;;;;;;;0.45;0.45;;;;;;;17.06;60.11;100018.00;5335212;26;20716;-96
2023/09/02 03:58:32;;;;;;;0.00;0.00;;;;;;;17.11;60.12;100020.37;5334689;26;20058;-94
2023/09/02 04:00:59;;;;;;;0.00;0.00;;;;;;;17.02;60.11;100018.25;5356095;26;177287;-96
2023/09/02 04:03:25;;;;;;;0.30;0.30;;;;;;;16.95;60.10;100019.50;5371051;26;20028;-96
2023/09/02 04:05:50;;;;;;;0.20;0.20;;;;;;;16.91;60.11;100018.84;5339880;26;20050;-96
2023/09/02 04:08:21;;;;;;;2.30;0.30;;;;;;;16.94;60.10;100023.91;5338596;26;20144;-96
2023/09/02 04:10:51;;;;;;;0.10;0.10;;;;;;;16.99;60.11;100024.50;5337603;26;20115;-96
2023/09/02 04:13:17;;;;;;;0.00;0.00;;;;;;;16.92;60.11;100025.78;5338133;26;20055;-96
2023/09/02 04:15:42;;;;;;;0.00;0.00;;;;;;;17.01;60.11;100032.31;5375916;26;20101;-96
2023/09/02 04:18:08;;;;;;;0.20;0.08;;;;;;;16.97;60.10;100030.78;5356667;26;20055;-96
2023/09/02 04:20:36;;;;;;;0.25;0.25;;;;;;;17.04;60.11;100027.78;5336548;26;20141;-96
2023/09/02 04:23:02;;;;;;;0.10;0.10;;;;;;;17.07;60.10;100034.66;5337559;26;20043;-96
2023/09/02 04:25:27;;;;;;;0.28;0.28;;;;;;;17.24;60.12;100031.06;5335169;26;20088;-95
2023/09/02 04:27:53;;;;;;;0.98;0.52;;;;;;;17.20;60.12;100030.41;5334546;26;20091;-94
2023/09/02 04:30:18;;;;;;;0.00;0.00;;;;;;;17.28;60.12;100035.25;5334724;26;20124;-95
2023/09/02 04:32:47;;;;;;;0.20;0.20;;;;;;;17.22;60.11;100033.78;5334629;26;20059;-95
2023/09/02 04:35:13;;;;;;;0.00;0.00;;;;;;;17.27;60.12;100042.31;5336480;26;20735;-96
2023/09/02 04:37:38;;;;;;;0.17;0.17;;;;;;;17.27;60.12;100041.41;5335619;26;20071;-96
2023/09/02 04:40:08;;;;;;;1.10;0.50;;;;;;;17.36;60.12;100044.41;5336506;26;20063;-95
2023/09/02 04:42:33;;;;;;;0.17;0.17;;;;;;;17.40;60.13;100048.56;5374327;26;20059;-95
2023/09/02 04:44:59;;;;;;;0.17;0.15;;;;;;;17.35;60.13;100047.13;5335566;26;20073;-96
2023/09/02 04:47:24;;;;;;;0.00;0.00;;;;;;;17.42;60.13;100051.13;5354198;26;20140;-95
2023/09/02 04:49:50;;;;;;;0.13;0.13;;;;;;;17.46;60.13;100047.37;5335109;26;20094;-96
2023/09/02 04:52:15;;;;;;;1.12;1.02;;;;;;;17.46;60.14;100050.84;5334635;26;20193;-95
2023/09/02 04:54:45;;;;;;;0.40;0.40;;;;;;;17.46;60.14;100056.12;5334790;26;20048;-94
2023/09/02 04:57:10;;;;;;;0.25;0.20;;;;;;;17.47;60.14;100052.56;5372332;26;20839;-95
2023/09/02 04:59:36;;;;;;;0.20;0.20;;;;;;;17.54;60.13;100050.44;5335880;26;20059;-96
2023/09/02 05:02:01;;;;;;;0.10;0.10;;;;;;;17.80;60.15;100046.38;5336686;26;20071;-94
2023/09/02 05:04:26;;;;;;;0.10;0.10;;;;;;;17.87;60.16;100046.87;5335569;26;20051;-96
2023/09/02 05:06:52;;;;;;;0.30;0.30;;;;;;;18.14;60.17;100044.41;5335411;26;20066;-96
2023/09/02 05:09:17;;;;;;;0.47;0.20;;;;;;;18.01;60.16;100050.41;5335745;26;20060;-95
2023/09/02 05:11:43;;;;;;;0.08;0.08;;;;;;;17.95;60.16;100052.53;5336250;26;20059;-95
2023/09/02 05:14:08;;;;;;;0.98;0.40;;;;;;;18.18;60.17;100056.47;5334974;26;20055;-95
2023/09/02 05:16:34;;;;;;;0.20;0.20;;;;;;;18.49;60.19;100048.47;5334847;26;20453;-96
2023/09/02 05:18:59;;;;;;;0.47;0.25;;;;;;;18.33;60.18;100051.16;5335318;26;20060;-95
2023/09/02 05:21:26;;;;;;;0.10;0.10;;;;;;;18.30;60.17;100058.41;5333981;26;20110;-95
2023/09/02 05:23:52;;;;;;;0.28;0.28;;;;;;;18.44;60.18;100047.03;5334335;26;20093;-95
2023/09/02 05:26:18;;;;;;;0.00;0.00;;;;;;;18.52;60.19;100052.72;5334599;26;20676;-94
2023/09/02 05:28:43;;;;;;;0.40;0.40;;;;;;;18.83;60.20;100057.84;5334049;26;20097;-94
2023/09/02 05:31:09;;;;;;;0.25;0.25;;;;;;;19.02;60.22;100047.88;5334092;26;20077;-95
2023/09/02 05:33:34;;;;;;;0.40;0.30;;;;;;;19.08;60.21;100040.50;5334311;26;20052;-94
2023/09/02 05:36:00;;;;;;;6.65;1.87;;;;;;;19.04;60.21;100039.00;5334025;26;20082;-95
2023/09/02 05:38:25;;;;;;;1.92;1.23;;;;;;;19.08;60.21;100046.63;5334633;26;20196;-94
2023/09/02 05:40:52;;;;;;;2.37;1.83;;;;;;;19.21;60.22;100044.09;5334360;26;20392;-95
2023/09/02 05:43:17;;;;;;;1.20;0.75;;;;;;;19.28;60.22;100053.28;5334969;26;20723;-95
2023/09/02 05:45:42;;;;;;;1.17;0.80;;;;;;;19.50;60.24;100045.72;5334609;26;20099;-96
2023/09/02 05:48:08;;;;;;;1.10;0.50;;;;;;;19.92;60.26;100050.03;5334271;26;20070;-95
2023/09/02 05:50:33;;;;;;;0.13;0.13;;;;;;;19.81;60.25;100049.88;5333986;26;20377;-95
2023/09/02 05:52:59;;;;;;;0.93;0.93;;;;;;;19.91;60.26;100048.34;5334231;26;20051;-95
2023/09/02 05:55:24;;;;;;;0.82;0.80;;;;;;;20.08;60.26;100043.72;5334040;26;20084;-95
2023/09/02 05:57:50;;;;;;;0.35;0.35;;;;;;;20.15;60.26;100045.03;5352556;26;20056;-95
2023/09/02 06:00:15;;;;;;;5.32;1.05;;;;;;;20.18;60.28;100043.03;5333744;26;20088;-96
2023/09/02 06:02:41;;;;;;;0.50;0.45;;;;;;;20.43;60.29;100039.59;5352452;26;20424;-96
2023/09/02 06:05:07;;;;;;;4.75;2.85;;;;;;;20.59;60.29;100043.84;5333710;26;20055;-95
2023/09/02 06:07:32;;;;;;;0.30;0.30;;;;;;;20.76;60.30;100039.06;5352246;26;20066;-93
2023/09/02 06:09:58;;;;;;;0.73;0.55;;;;;;;20.91;60.31;100045.09;5333466;26;20063;-96
2023/09/02 06:12:23;;;;;;;0.60;0.60;;;;;;;21.04;60.32;100050.34;5352784;26;20051;-96
2023/09/02 06:14:49;;;;;;;3.47;2.95;;;;;;;21.07;60.32;100045.72;5333907;26;20312;-95
2023/09/02 06:17:14;;;;;;;3.62;1.42;;;;;;;21.06;60.32;100041.38;5333672;26;20064;-95
2023/09/02 06:19:39;;;;;;;0.03;0.03;;;;;;;20.95;60.32;100040.44;5333696;26;20075;-92
2023/09/02 06:22:05;;;;;;;0.47;0.47;;;;;;;21.36;60.33;100045.47;5333428;26;20090;-94
2023/09/02 06:24:30;;;;;;;0.55;0.55;;;;;;;21.48;60.33;100043.72;5333676;26;20107;-95
2023/09/02 06:27:03;;;;;;;3.53;2.70;;;;;;;21.31;60.33;100052.91;5333506;26;20087;-95
2023/09/02 06:29:28;;;;;;;1.62;1.52;;;;;;;21.46;60.34;100051.78;5335740;26;20122;-95
2023/09/02 06:31:54;;;;;;;0.10;0.10;;;;;;;21.67;60.35;100050.22;5352175;26;20100;-96
2023/09/02 06:34:22;;;;;;;0.45;0.45;;;;;;;21.71;60.36;100061.44;5334883;26;20047;-94
2023/09/02 06:36:47;;;;;;;1.45;0.45;;;;;;;22.00;60.37;100065.47;5335159;26;20662;-95
2023/09/02 06:39:13;;;;;;;0.70;0.62;;;;;;;21.85;60.35;100058.63;5333684;26;20099;-94
2023/09/02 06:41:38;;;;;;;12.02;4.05;;;;;;;22.04;60.37;100064.31;5351960;26;20119;-95
2023/09/02 06:44:08;;;;;;;14.50;9.95;;;;;;;22.18;60.38;100057.94;5340828;26;20044;-96
2023/09/02 06:46:35;;;;;;;3.62;3.28;;;;;;;22.19;60.38;100059.62;5378771;26;20066;-96
2023/09/02 06:49:05;;;;;;;15.73;4.22;;;;;;;22.32;60.38;100067.53;5340805;26;20052;-96
2023/09/02 06:51:30;;;;;;;;;;;;;;;22.33;60.38;100058.59;5359887;26;20016;-96
2023/09/02 06:53:56;;;;;;;4.30;1.15;;;;;;;22.66;60.41;100061.31;5356788;26;19959;-96
2023/09/02 06:56:21;;;;;;;0.73;0.73;;;;;;;22.92;60.42;100061.13;5333933;26;20056;-96
2023/09/02 06:58:47;;;;;;;0.90;0.90;;;;;;;22.82;60.41;100061.03;5334930;26;20056;-96
2023/09/02 07:01:22;;;;;;;0.95;0.95;;;;;;;22.86;60.41;100061.63;5335044;26;20100;-95
2023/09/02 07:03:48;;;;;;;0.50;0.50;;;;;;;22.91;60.42;100059.44;5335896;26;20085;-96
2023/09/02 07:06:15;;;;;;;1.05;0.82;;;;;;;23.18;60.43;100051.97;5334770;26;20686;-95
2023/09/02 07:08:41;;;;;;;1.65;1.17;;;;;;;23.06;60.43;100060.91;5334836;26;20070;-96
2023/09/02 07:11:06;;;;;;;0.80;0.47;;;;;;;23.39;60.43;100052.06;5335279;26;20656;-96
2023/09/02 07:13:32;;;;;;;11.48;4.20;;;;;;;23.43;60.45;100061.50;5335095;26;20056;-96
2023/09/02 07:16:01;;;;;;;0.20;0.10;;;;;;;23.67;60.46;100053.38;5334055;26;20079;-95
2023/09/02 07:18:26;;;;;;;0.28;0.28;;;;;;;23.89;60.46;100057.75;5334932;26;20063;-95
2023/09/02 07:20:52;;;;;;;0.75;0.75;;;;;;;24.00;60.47;100062.19;5372337;26;20074;-96
2023/09/02 07:23:19;;;;;;;0.10;0.10;;;;;;;23.86;60.46;100063.31;5336195;26;20145;-96
2023/09/02 07:25:44;;;;;;;0.22;0.22;;;;;;;23.76;60.46;100068.56;5335382;26;20104;-96
2023/09/02 07:28:10;;;;;;;0.85;0.77;;;;;;;24.07;60.48;100066.88;5335545;26;20075;-96
2023/09/02 07:30:38;;;;;;;0.43;0.43;;;;;;;23.95;60.47;100067.91;5335688;26;20173;-96
2023/09/02 07:33:04;;;;;;;1.02;1.00;;;;;;;24.14;60.49;100068.06;5335795;26;20023;-96
2023/09/02 07:35:35;;;;;;;4.37;2.15;;;;;;;24.36;60.48;100063.63;5335659;26;20059;-96
2023/09/02 07:38:00;;;;;;;0.45;0.45;;;;;;;24.61;60.50;100065.91;5337090;26;20038;-94
2023/09/02 07:40:26;;;;;;;0.20;0.20;;;;;;;24.57;60.50;100064.47;5334999;26;20100;-96
2023/09/02 07:42:53;;;;;;;1.73;0.55;;;;;;;24.78;60.51;100061.78;5335669;26;20429;-96
2023/09/02 07:45:19;;;;;;;1.83;1.30;;;;;;;24.89;60.51;100058.22;5335747;26;20081;-96
2023/09/02 07:47:45;;;;;;;1.10;1.08;;;;;;;25.15;60.54;100059.47;5335003;26;20051;-96
2023/09/02 07:50:11;;;;;;;0.35;0.35;;;;;;;25.23;60.54;100064.97;5335143;26;20059;-96
2023/09/02 07:52:36;;;;;;;0.10;0.10;;;;;;;25.28;60.54;100073.38;5334438;26;20047;-96
2023/09/02 07:55:03;;;;;;;0.80;0.57;;;;;;;25.48;60.55;100065.47;5334888;26;20059;-96
2023/09/02 07:57:30;;;;;;;5.55;0.43;;;;;;;25.52;60.54;100067.72;5335470;26;20113;-96
2023/09/02 07:59:56;;;;;;;1.27;0.47;;;;;;;25.62;60.55;100059.75;5335380;26;20123;-96
2023/09/02 08:02:21;;;;;;;0.45;0.28;;;;;;;25.73;60.56;100066.78;5334607;26;20116;-95
2023/09/02 08:04:57;;;;;;;0.10;0.10;;;;;;;25.85;60.56;100066.53;5336876;26;20033;-96
2023/09/02 08:07:23;;;;;;;0.30;0.28;;;;;;;25.93;60.58;100064.00;5383841;26;20071;-96
2023/09/02 08:09:49;;;;;;;0.32;0.32;;;;;;;26.11;60.58;100066.84;5339433;26;20063;-96
2023/09/02 08:12:15;;;;;;;0.10;0.10;;;;;;;26.20;60.59;100065.13;5339607;26;20112;-96
2023/09/02 08:14:41;;;;;;;0.35;0.35;;;;;;;26.20;60.58;100068.66;5340932;26;20059;-96
2023/09/02 08:17:06;;;;;;;1.10;0.73;;;;;;;26.51;60.60;100061.34;5340109;26;20064;-96
2023/09/02 08:19:32;;;;;;;0.43;0.43;;;;;;;26.55;60.60;100073.44;5343138;26;20093;-96
2023/09/02 08:21:58;;;;;;;0.10;0.10;;;;;;;26.78;60.61;100067.75;5361035;26;20078;-96
2023/09/02 08:24:24;;;;;;;0.73;0.40;;;;;;;26.79;60.61;100072.94;5336736;26;20059;-95
2023/09/02 08:26:50;;;;;;;0.00;0.00;;;;;;;26.90;60.62;100072.75;5336939;26;20079;-96
2023/09/02 08:29:15;;;;;;;0.70;0.52;;;;;;;26.78;60.61;100073.94;5337193;26;20054;-96
2023/09/02 08:31:41;;;;;;;0.30;0.30;;;;;;;26.92;60.62;100075.28;5339071;26;20070;-96
2023/09/02 08:34:06;;;;;;;0.93;0.90;;;;;;;27.23;60.64;100062.56;5341179;26;20108;-96
2023/09/02 08:36:32;;;;;;;0.25;0.25;;;;;;;27.29;60.65;100071.81;5338878;26;20063;-96
2023/09/02 08:38:58;;;;;;;1.25;0.10;;;;;;;27.56;60.65;100069.12;5338146;26;20052;-96
2023/09/02 08:41:31;;;;;;;0.52;0.50;;;;;;;27.50;60.65;100070.56;5357970;26;20402;-96
2023/09/02 08:44:03;;;;;;;0.55;0.35;;;;;;;27.71;60.66;100070.31;5339356;26;20063;-95
2023/09/02 08:46:29;;;;;;;0.17;0.17;;;;;;;27.90;60.67;100072.00;5337906;26;20032;-96
2023/09/02 08:48:58;;;;;;;0.47;0.47;;;;;;;28.06;60.67;100064.13;5355229;26;20130;-96
2023/09/02 08:51:26;;;;;;;0.32;0.20;;;;;;;28.27;60.69;100073.72;5339780;26;20043;-95
2023/09/02 08:54:02;;;;;;;0.03;0.03;;;;;;;28.40;60.70;100077.69;5384949;26;20028;-96
2023/09/02 08:56:33;;;;;;;0.03;0.03;;;;;;;28.53;60.70;100068.38;5402831;26;20024;-96
2023/09/02 08:59:05;;;;;;;0.20;0.20;;;;;;;28.73;60.72;100076.06;5365528;26;20102;-95
2023/09/02 09:01:32;;;;;;;0.30;0.30;;;;;;;28.77;60.71;100067.72;5366040;26;20038;-96
2023/09/02 09:03:58;;;;;;;0.20;0.20;;;;;;;28.93;60.72;100075.88;5361730;26;20063;-95
2023/09/02 09:06:24;;;;;;;0.35;0.35;;;;;;;29.22;60.74;100062.12;5335406;26;20135;-94
2023/09/02 09:08:51;;;;;;;0.10;0.10;;;;;;;29.30;60.74;100068.34;5333908;26;20053;-94
2023/09/02 09:11:17;;;;;;;0.10;0.10;;;;;;;29.32;60.75;100069.00;5334458;26;20074;-94
2023/09/02 09:13:45;;;;;;;0.40;0.40;;;;;;;29.31;60.74;100069.19;5334046;26;20056;-95
2023/09/02 09:16:15;;;;;;;0.10;0.10;;;;;;;29.39;60.75;100066.53;5334721;26;20209;-94
2023/09/02 09:18:41;;;;;;;0.00;0.00;;;;;;;29.49;60.75;100072.62;5334566;26;20142;-94
2023/09/02 09:21:07;;;;;;;0.52;0.50;;;;;;;29.64;60.76;100067.50;5333947;26;20397;-95
2023/09/02 09:23:34;;;;;;;0.80;0.47;;;;;;;29.94;60.78;100068.72;5334146;26;20317;-94
2023/09/02 09:25:59;;;;;;;0.40;0.30;;;;;;;29.99;60.78;100066.38;5334237;26;20073;-93
2023/09/02 09:28:25;;;;;;;0.17;0.17;;;;;;;30.13;60.79;100070.28;5333748;26;20393;-94
2023/09/02 09:30:50;;;;;;;0.93;0.85;;;;;;;30.23;60.80;100073.63;5333899;26;20051;-95
2023/09/02 09:33:17;;;;;;;0.00;0.00;;;;;;;30.32;60.79;100066.44;5333973;26;20059;-94
2023/09/02 09:35:42;;;;;;;0.70;0.70;;;;;;;30.38;60.80;100065.75;5352666;26;20688;-95
2023/09/02 09:38:08;;;;;;;0.30;0.30;;;;;;;30.38;60.80;100077.31;5333883;26;20056;-95
2023/09/02 09:40:35;;;;;;;0.20;0.20;;;;;;;30.49;60.80;100074.28;5333862;26;22548;-96
2023/09/02 09:43:01;;;;;;;0.45;0.45;;;;;;;30.66;60.82;100067.06;5333899;26;20063;-94
2023/09/02 09:45:27;;;;;;;0.00;0.00;;;;;;;30.82;60.82;100069.75;5334093;26;20720;-93
2023/09/02 09:47:56;;;;;;;0.77;0.62;;;;;;;30.87;60.83;100068.38;5333898;26;20064;-93
2023/09/02 09:50:21;;;;;;;0.87;0.50;;;;;;;31.05;60.84;100069.00;5333790;26;20403;-92
2023/09/02 09:53:01;;;;;;;0.10;0.10;;;;;;;31.08;60.83;100072.19;5333004;26;30075;-92
2023/09/02 09:55:27;;;;;;;0.03;0.03;;;;;;;31.27;60.85;100075.50;5335410;26;20735;-92
2023/09/02 09:57:54;;;;;;;0.10;0.10;;;;;;;31.32;60.86;100063.22;5352297;26;20063;-91
2023/09/02 10:00:19;;;;;;;0.32;0.30;;;;;;;31.38;60.85;100065.19;5334002;26;20052;-92
2023/09/02 10:02:54;;;;;;;0.10;0.10;;;;;;;31.58;60.86;100064.75;5333972;26;20080;-92
2023/09/02 10:05:30;;;;;;;0.47;0.47;;;;;;;31.50;60.86;100064.81;5333934;26;20134;-92
2023/09/02 10:07:57;;;;;;;0.10;0.05;;;;;;;31.44;60.86;100060.94;5333880;26;20107;-92
2023/09/02 10:10:28;;;;;;;0.00;0.00;;;;;;;31.56;60.87;100064.09;5333746;26;20069;-91
2023/09/02 10:12:53;;;;;;;0.75;0.43;;;;;;;31.70;60.87;100055.25;5334020;26;20056;-90
2023/09/02 10:15:24;;;;;;;0.50;0.50;;;;;;;31.78;60.87;100057.94;5334017;26;20150;-91
2023/09/02 10:17:50;;;;;;;0.20;0.20;;;;;;;31.95;60.88;100054.13;5335246;26;20063;-91
2023/09/02 10:20:16;;;;;;;0.00;0.00;;;;;;;31.99;60.89;100054.59;5333995;26;20466;-91
2023/09/02 10:22:43;;;;;;;4.78;0.90;;;;;;;32.20;60.89;100056.63;5333459;26;20064;-90
2023/09/02 10:25:15;;;;;;;0.17;0.17;;;;;;;32.27;60.90;100058.44;5333816;26;20055;-89
2023/09/02 10:27:42;;;;;;;0.10;0.10;;;;;;;32.28;60.90;100056.56;5334257;26;20423;-90
2023/09/02 10:30:23;;;;;;;0.00;0.00;;;;;;;32.28;60.90;100053.87;5333275;26;20056;-90
2023/09/02 10:32:51;;;;;;;0.00;0.00;;;;;;;32.27;60.90;100055.75;5335471;26;20109;-90
2023/09/02 10:35:22;;;;;;;0.32;0.32;;;;;;;32.36;60.91;100056.50;5334868;26;20067;-90
2023/09/02 10:37:55;;;;;;;0.15;0.15;;;;;;;32.54;60.92;100046.22;5352812;26;20073;-90
2023/09/02 10:40:23;;;;;;;0.00;0.00;;;;;;;32.65;60.92;100053.00;5353109;26;20091;-89
2023/09/02 10:42:49;;;;;;;0.10;0.10;;;;;;;32.77;60.93;100046.16;5334195;26;20111;-89
2023/09/02 10:45:17;;;;;;;0.05;0.05;;;;;;;32.81;60.93;100043.94;5335118;26;20091;-90
2023/09/02 10:47:47;;;;;;;0.85;0.30;;;;;;;32.82;60.92;100043.75;5334212;26;20720;-89
2023/09/02 10:50:16;;;;;;;0.73;0.60;;;;;;;32.90;60.93;100041.00;5334434;26;20024;-90
2023/09/02 10:52:42;;;;;;;0.17;0.17;;;;;;;32.50;60.91;100041.38;5334121;26;20024;-90
2023/09/02 10:55:08;;;;;;;0.05;0.05;;;;;;;32.67;60.92;100042.91;5334243;26;20071;-88
2023/09/02 10:57:46;;;;;;;0.13;0.13;;;;;;;32.47;60.92;100029.12;5353061;26;20105;-90
2023/09/02 11:00:18;;;;;;;0.43;0.43;;;;;;;32.22;60.90;100041.13;5352798;26;20067;-89
2023/09/02 11:02:44;;;;;;;0.00;0.00;;;;;;;32.40;60.92;100043.50;5371745;26;20071;-90
2023/09/02 11:05:09;;;;;;;0.00;0.00;;;;;;;32.66;60.92;100039.38;5352791;26;20320;-90
2023/09/02 11:07:36;;;;;;;0.20;0.20;;;;;;;32.80;60.93;100037.72;5352374;26;20056;-89
2023/09/02 11:10:02;;;;;;;1.42;1.33;;;;;;;33.02;60.94;100043.22;5352856;26;20047;-90
2023/09/02 11:12:28;;;;;;;0.47;0.47;;;;;;;33.11;60.95;100040.22;5334385;26;20064;-90
2023/09/02 11:15:08;;;;;;;1.37;0.98;;;;;;;33.02;60.95;100048.59;5352912;26;20063;-90
2023/09/02 11:17:34;;;;;;;0.13;0.13;;;;;;;33.17;60.96;100042.19;5371566;26;20116;-90
2023/09/02 11:20:07;;;;;;;0.10;0.10;;;;;;;33.30;60.96;100048.75;5352320;26;20052;-90
2023/09/02 11:23:08;;;;;;;0.05;0.05;;;;;;;33.13;60.95;100043.59;5334922;26;20059;-90
2023/09/02 11:25:39;;;;;;;0.30;0.15;;;;;;;32.96;60.94;100055.59;5353520;26;20070;-90